Time;durP1;ratioP1;P1;durP2;ratioP2;P2;SDS_P1;SDS_P2;PMS_P1;PMS_P2;Temp;Humidity;BMP_temperature;BMP_pressure;BME280_temperature;BME280_humidity;BME280_pressure;Samples;Min_cycle;Max_cycle;Signal;HPM_P1;HPM_P2
2023/12/30 00:02:19;;;;;;;6.03;2.80;;;9.70;76.10;;;;;;5027161;28;20787;-70
2023/12/30 00:04:45;;;;;;;5.50;3.13;;;9.70;76.20;;;;;;5023808;28;20276;-70
2023/12/30 00:07:10;;;;;;;9.43;3.53;;;9.70;75.90;;;;;;5019671;28;20190;-70
2023/12/30 00:09:37;;;;;;;2.40;2.00;;;9.80;75.80;;;;;;5027564;28;20192;-69
2023/12/30 00:12:03;;;;;;;5.73;2.70;;;9.80;75.90;;;;;;5028924;28;20212;-70
2023/12/30 00:14:28;;;;;;;3.87;2.70;;;9.90;75.70;;;;;;5025549;28;20420;-69
2023/12/30 00:16:54;;;;;;;4.17;2.70;;;9.90;75.40;;;;;;5029203;28;20861;-70
2023/12/30 00:19:20;;;;;;;3.60;2.27;;;10.00;74.90;;;;;;5031255;28;20259;-70
2023/12/30 00:21:45;;;;;;;4.33;2.40;;;10.10;74.50;;;;;;5026433;28;20225;-70
2023/12/30 00:24:11;;;;;;;2.90;2.30;;;10.10;74.30;;;;;;5024770;28;20184;-70
2023/12/30 00:26:36;;;;;;;4.03;2.33;;;10.20;74.00;;;;;;5030933;28;20181;-70
2023/12/30 00:29:02;;;;;;;4.60;2.80;;;10.30;73.60;;;;;;5026998;28;20561;-69
2023/12/30 00:31:29;;;;;;;3.87;2.20;;;10.40;73.30;;;;;;5018904;28;20209;-71
2023/12/30 00:34:00;;;;;;;4.00;2.37;;;10.40;73.00;;;;;;5022931;28;20229;-69
2023/12/30 00:36:26;;;;;;;4.20;2.43;;;10.50;72.90;;;;;;5024992;28;20506;-69
2023/12/30 00:38:55;;;;;;;3.20;2.40;;;10.50;72.70;;;;;;5026254;28;20436;-69
2023/12/30 00:41:21;;;;;;;5.20;2.60;;;10.50;72.60;;;;;;5028564;28;20505;-68
2023/12/30 00:43:47;;;;;;;5.03;2.27;;;10.60;72.60;;;;;;5024415;28;20424;-70
2023/12/30 00:46:13;;;;;;;4.53;2.53;;;10.60;72.60;;;;;;5032434;28;21172;-69
2023/12/30 00:48:39;;;;;;;4.03;2.23;;;10.60;72.60;;;;;;5031353;28;20412;-70
2023/12/30 00:51:04;;;;;;;7.20;2.20;;;10.50;72.60;;;;;;5025357;28;20715;-69
2023/12/30 00:53:30;;;;;;;3.50;2.30;;;10.50;72.70;;;;;;5028116;28;20188;-70
2023/12/30 00:55:56;;;;;;;4.67;2.10;;;10.50;72.70;;;;;;5029382;28;20201;-69
2023/12/30 00:58:22;;;;;;;3.60;2.20;;;10.50;72.60;;;;;;5025002;28;20197;-70
2023/12/30 01:00:49;;;;;;;3.57;2.20;;;10.50;72.70;;;;;;5025536;28;21058;-68
2023/12/30 01:03:15;;;;;;;4.30;2.13;;;10.50;72.70;;;;;;5022306;28;20424;-70
2023/12/30 01:05:40;;;;;;;3.60;2.47;;;10.50;72.70;;;;;;5037696;28;20450;-69
2023/12/30 01:08:06;;;;;;;3.07;2.10;;;10.50;73.50;;;;;;5039395;28;20196;-67
2023/12/30 01:10:32;;;;;;;5.07;2.80;;;10.40;73.90;;;;;;5032128;28;20197;-69
2023/12/30 01:12:57;;;;;;;2.70;2.13;;;10.40;74.50;;;;;;5031983;28;20845;-70
2023/12/30 01:15:23;;;;;;;4.87;2.57;;;10.30;74.90;;;;;;5037393;28;20178;-68
2023/12/30 01:17:49;;;;;;;3.00;2.60;;;10.30;74.80;;;;;;5027926;28;20181;-70
2023/12/30 01:20:14;;;;;;;7.17;2.67;;;10.30;75.70;;;;;;5027395;28;20363;-69
2023/12/30 01:22:40;;;;;;;3.97;2.40;;;10.20;75.70;;;;;;5033974;28;20169;-71
2023/12/30 01:25:06;;;;;;;3.70;2.50;;;10.20;76.10;;;;;;5031454;28;20192;-70
2023/12/30 01:27:32;;;;;;;2.80;2.10;;;10.20;76.20;;;;;;5029689;28;20193;-70
2023/12/30 01:29:57;;;;;;;4.63;2.57;;;10.10;76.50;;;;;;5024656;28;20464;-70
2023/12/30 01:32:23;;;;;;;6.57;2.40;;;10.00;76.40;;;;;;5023044;28;20181;-71
2023/12/30 01:34:48;;;;;;;4.07;2.40;;;10.00;76.50;;;;;;5029952;28;20181;-70
2023/12/30 01:37:14;;;;;;;5.30;3.00;;;10.00;76.20;;;;;;5024946;28;20261;-70
2023/12/30 01:39:40;;;;;;;5.20;2.30;;;10.10;76.70;;;;;;5022217;28;20216;-71
2023/12/30 01:42:05;;;;;;;5.23;2.60;;;10.00;77.10;;;;;;5023504;28;20217;-69
2023/12/30 01:44:31;;;;;;;4.83;2.80;;;10.00;78.00;;;;;;5030254;28;20184;-71
2023/12/30 01:46:58;;;;;;;2.70;1.90;;;10.00;78.00;;;;;;5022372;28;20234;-71
2023/12/30 01:49:24;;;;;;;3.47;2.30;;;9.90;78.90;;;;;;5028985;28;20642;-69
2023/12/30 01:51:50;;;;;;;2.70;2.40;;;9.80;79.50;;;;;;5026521;28;20506;-69
2023/12/30 01:54:17;;;;;;;2.80;2.43;;;9.70;80.00;;;;;;5028077;28;20177;-71
2023/12/30 01:56:43;;;;;;;5.17;2.53;;;9.60;80.60;;;;;;5029384;28;20446;-70
2023/12/30 01:59:11;;;;;;;6.33;3.27;;;9.60;81.20;;;;;;5021188;28;20432;-69
2023/12/30 02:01:36;;;;;;;3.63;2.33;;;9.50;81.50;;;;;;5026065;28;20503;-68
2023/12/30 02:04:02;;;;;;;4.23;2.90;;;9.40;81.90;;;;;;5026237;28;20454;-67
2023/12/30 02:06:28;;;;;;;4.60;2.80;;;9.40;82.40;;;;;;5033739;28;20196;-69
2023/12/30 02:08:53;;;;;;;6.43;3.30;;;9.30;82.50;;;;;;5028267;28;20188;-70
2023/12/30 02:11:20;;;;;;;6.00;2.83;;;9.30;82.80;;;;;;5026306;28;20756;-70
2023/12/30 02:13:45;;;;;;;5.00;3.17;;;9.20;83.10;;;;;;5029659;28;20182;-69
2023/12/30 02:16:11;;;;;;;4.87;2.97;;;9.20;83.30;;;;;;5025730;28;20855;-69
2023/12/30 02:18:38;;;;;;;6.17;2.90;;;9.20;83.10;;;;;;5026302;28;20259;-69
2023/12/30 02:21:04;;;;;;;4.27;2.70;;;9.10;83.10;;;;;;5023351;28;20590;-69
2023/12/30 02:23:30;;;;;;;5.37;3.00;;;9.10;83.00;;;;;;5026608;28;20430;-69
2023/12/30 02:25:55;;;;;;;4.90;3.07;;;9.30;82.80;;;;;;5022902;28;20516;-69
2023/12/30 02:28:21;;;;;;;4.67;2.87;;;9.30;82.70;;;;;;5017415;28;20724;-70
2023/12/30 02:30:47;;;;;;;4.27;2.80;;;9.30;82.50;;;;;;5022551;28;20796;-70
2023/12/30 02:33:12;;;;;;;5.63;3.50;;;9.20;82.50;;;;;;5026371;28;20193;-71
2023/12/30 02:35:42;;;;;;;4.07;2.80;;;9.20;82.70;;;;;;5028894;28;20821;-68
2023/12/30 02:38:08;;;;;;;5.60;2.73;;;9.30;82.50;;;;;;5026190;28;20235;-68
2023/12/30 02:40:33;;;;;;;4.60;2.90;;;9.20;82.40;;;;;;5023559;28;20483;-68
2023/12/30 02:42:59;;;;;;;6.83;3.17;;;9.20;82.40;;;;;;5027535;28;20440;-69
2023/12/30 02:45:25;;;;;;;4.50;3.17;;;9.20;82.80;;;;;;5026351;28;20217;-69
2023/12/30 02:47:50;;;;;;;6.23;3.63;;;9.10;83.10;;;;;;5028039;28;20173;-70
2023/12/30 02:50:16;;;;;;;4.43;2.80;;;9.10;83.60;;;;;;5022160;28;20209;-70
2023/12/30 02:52:42;;;;;;;5.03;3.10;;;9.10;83.60;;;;;;5025891;28;20184;-71
2023/12/30 02:55:08;;;;;;;6.10;3.10;;;9.10;83.60;;;;;;5025308;28;20185;-71
2023/12/30 02:57:33;;;;;;;5.83;3.27;;;9.00;83.60;;;;;;5029550;28;20193;-70
2023/12/30 02:59:59;;;;;;;3.67;2.93;;;9.10;83.80;;;;;;5022210;28;20205;-69
2023/12/30 03:02:24;;;;;;;6.43;2.97;;;9.10;84.00;;;;;;5026566;28;20185;-70
2023/12/30 03:04:51;;;;;;;5.60;3.07;;;9.10;83.30;;;;;;5026607;28;20184;-70
2023/12/30 03:07:17;;;;;;;5.60;2.90;;;9.10;82.80;;;;;;5032344;28;20677;-69
2023/12/30 03:09:43;;;;;;;5.07;3.17;;;9.10;82.50;;;;;;5025089;28;20443;-67
2023/12/30 03:12:09;;;;;;;4.03;2.30;;;9.10;83.00;;;;;;5026368;28;20197;-69
2023/12/30 03:14:35;;;;;;;4.87;2.77;;;9.00;83.00;;;;;;5033491;28;20180;-69
2023/12/30 03:17:01;;;;;;;5.10;2.70;;;9.00;83.40;;;;;;5033951;28;20881;-69
2023/12/30 03:19:27;;;;;;;7.33;2.60;;;8.90;83.10;;;;;;5027838;28;20419;-70
2023/12/30 03:21:53;;;;;;;2.43;2.20;;;8.90;83.40;;;;;;5029714;28;20556;-71
2023/12/30 03:24:19;;;;;;;3.60;2.50;;;8.90;83.10;;;;;;5033479;28;20182;-69
2023/12/30 03:26:44;;;;;;;4.50;2.50;;;8.90;83.00;;;;;;5028293;28;20446;-71
2023/12/30 03:29:10;;;;;;;4.03;2.43;;;8.90;83.00;;;;;;5029665;28;20177;-69
2023/12/30 03:31:36;;;;;;;3.53;2.33;;;9.00;82.80;;;;;;5025382;28;20197;-71
2023/12/30 03:34:01;;;;;;;4.70;2.70;;;9.00;82.50;;;;;;5030117;28;20628;-70
2023/12/30 03:36:27;;;;;;;3.97;2.20;;;9.00;82.50;;;;;;5032292;28;20181;-68
2023/12/30 03:38:53;;;;;;;4.10;2.60;;;9.00;82.70;;;;;;5029674;28;20565;-70
2023/12/30 03:41:19;;;;;;;4.03;2.40;;;8.90;82.70;;;;;;5027946;28;20217;-69
2023/12/30 03:43:45;;;;;;;3.80;2.47;;;8.90;82.70;;;;;;5031403;28;20420;-70
2023/12/30 03:46:10;;;;;;;5.43;2.20;;;8.90;82.80;;;;;;5026742;28;20181;-70
2023/12/30 03:48:36;;;;;;;4.00;2.43;;;9.00;82.50;;;;;;5029915;28;20416;-69
2023/12/30 03:51:02;;;;;;;7.30;2.50;;;8.90;82.70;;;;;;5020337;28;20210;-71
2023/12/30 03:53:28;;;;;;;3.67;2.60;;;9.00;82.80;;;;;;5028197;28;20955;-72
2023/12/30 03:55:53;;;;;;;2.97;2.13;;;9.00;82.80;;;;;;5028458;28;20177;-71
2023/12/30 03:58:19;;;;;;;3.93;2.90;;;9.10;83.00;;;;;;5031097;28;20197;-71
2023/12/30 04:00:45;;;;;;;5.27;2.83;;;9.10;82.50;;;;;;5015107;28;20301;-70
2023/12/30 04:03:10;;;;;;;3.10;2.27;;;9.10;82.50;;;;;;5029793;28;20419;-70
2023/12/30 04:05:36;;;;;;;4.07;2.33;;;9.10;82.40;;;;;;5025722;28;20312;-70
2023/12/30 04:08:02;;;;;;;4.93;3.07;;;9.00;82.40;;;;;;5027120;28;20239;-69
2023/12/30 04:10:28;;;;;;;5.47;2.50;;;9.00;82.70;;;;;;5023422;28;20303;-68
2023/12/30 04:12:53;;;;;;;4.40;2.50;;;9.00;83.00;;;;;;5031372;28;20597;-68
2023/12/30 04:15:21;;;;;;;5.07;2.73;;;9.00;83.30;;;;;;5031254;28;20185;-71
2023/12/30 04:17:47;;;;;;;5.97;3.50;;;9.00;83.40;;;;;;5029656;28;20558;-68
2023/12/30 04:20:12;;;;;;;4.90;2.33;;;9.00;83.40;;;;;;5024690;28;20473;-70
2023/12/30 04:22:39;;;;;;;3.83;2.53;;;8.90;83.40;;;;;;5025440;28;20184;-69
2023/12/30 04:25:05;;;;;;;5.50;2.23;;;8.90;84.00;;;;;;5029880;28;20231;-70
2023/12/30 04:27:31;;;;;;;5.27;2.57;;;8.80;84.30;;;;;;5031774;28;20417;-70
2023/12/30 04:29:56;;;;;;;4.53;2.50;;;8.80;84.70;;;;;;5024749;28;21035;-70
2023/12/30 04:32:22;;;;;;;2.97;2.10;;;8.70;85.00;;;;;;5029674;28;20263;-68
2023/12/30 04:34:48;;;;;;;3.53;2.37;;;8.60;85.30;;;;;;5029796;28;20264;-68
2023/12/30 04:37:14;;;;;;;4.03;2.37;;;8.60;85.60;;;;;;5030447;28;20304;-70
2023/12/30 04:39:40;;;;;;;4.50;2.67;;;8.60;85.70;;;;;;5024217;28;20511;-69
2023/12/30 04:42:05;;;;;;;4.40;2.37;;;8.70;85.70;;;;;;5023345;28;20316;-68
2023/12/30 04:44:31;;;;;;;4.53;2.33;;;8.60;85.70;;;;;;5025046;28;20278;-71
2023/12/30 04:46:56;;;;;;;3.90;2.30;;;8.70;85.90;;;;;;5024659;28;20740;-70
2023/12/30 04:49:22;;;;;;;3.70;2.00;;;8.70;85.90;;;;;;5026265;28;20255;-69
2023/12/30 04:51:48;;;;;;;4.93;2.40;;;8.70;85.60;;;;;;5020485;28;20771;-70
2023/12/30 04:54:14;;;;;;;5.80;2.27;;;8.80;85.60;;;;;;5030972;28;20190;-71
2023/12/30 04:56:39;;;;;;;8.40;2.27;;;8.80;85.50;;;;;;5030295;28;20268;-70
2023/12/30 04:59:05;;;;;;;4.33;2.00;;;8.90;85.00;;;;;;5029185;28;20185;-70
2023/12/30 05:01:31;;;;;;;3.57;1.80;;;8.90;84.60;;;;;;5019730;28;20223;-70
2023/12/30 05:03:56;;;;;;;3.30;2.10;;;8.90;84.40;;;;;;5028202;28;20518;-71
2023/12/30 05:06:23;;;;;;;2.90;1.80;;;8.90;84.00;;;;;;5031822;28;20181;-69
2023/12/30 05:08:51;;;;;;;2.83;1.60;;;9.00;83.70;;;;;;5030820;28;20213;-70
2023/12/30 05:11:17;;;;;;;4.40;2.07;;;9.00;83.60;;;;;;5029532;28;20455;-69
2023/12/30 05:13:43;;;;;;;3.27;1.67;;;9.00;83.60;;;;;;5034396;28;20570;-70
2023/12/30 05:16:09;;;;;;;3.07;1.77;;;9.10;83.30;;;;;;5031583;28;20428;-70
2023/12/30 05:18:35;;;;;;;2.10;1.70;;;9.10;83.00;;;;;;5030975;28;20416;-70
2023/12/30 05:21:01;;;;;;;2.00;1.50;;;9.10;83.00;;;;;;5026163;28;20304;-69
2023/12/30 05:23:26;;;;;;;2.20;1.30;;;9.10;83.00;;;;;;5029608;28;20424;-68
2023/12/30 05:25:52;;;;;;;2.30;1.80;;;9.10;83.00;;;;;;5032891;28;20196;-70
2023/12/30 05:28:17;;;;;;;3.20;1.43;;;9.10;83.00;;;;;;5027133;28;20277;-71
2023/12/30 05:30:43;;;;;;;2.30;1.40;;;9.10;83.10;;;;;;5025606;28;20211;-68
2023/12/30 05:33:09;;;;;;;2.27;1.47;;;9.10;83.10;;;;;;5025255;28;20225;-70
2023/12/30 05:35:36;;;;;;;1.97;1.40;;;9.10;83.00;;;;;;5025868;28;20196;-68
2023/12/30 05:38:05;;;;;;;3.83;1.50;;;9.10;83.10;;;;;;5027472;28;20193;-70
2023/12/30 05:40:31;;;;;;;3.20;1.50;;;9.10;83.10;;;;;;5024888;28;20514;-70
2023/12/30 05:42:56;;;;;;;3.37;1.30;;;9.00;83.10;;;;;;5020916;28;20469;-70
2023/12/30 05:45:22;;;;;;;1.93;1.13;;;9.00;83.00;;;;;;5029789;28;20252;-72
2023/12/30 05:47:48;;;;;;;2.80;1.50;;;9.00;83.10;;;;;;5031946;28;20177;-69
2023/12/30 05:50:13;;;;;;;4.80;1.50;;;9.10;83.10;;;;;;5026415;28;20205;-71
2023/12/30 05:52:39;;;;;;;2.03;1.37;;;9.10;83.10;;;;;;5023929;28;20272;-71
2023/12/30 05:55:06;;;;;;;3.50;1.50;;;9.10;83.30;;;;;;5030668;28;20213;-71
2023/12/30 05:57:31;;;;;;;3.13;1.40;;;9.10;83.10;;;;;;5029536;28;20436;-70
2023/12/30 05:59:57;;;;;;;2.13;1.30;;;9.10;83.10;;;;;;5024273;28;20843;-70
2023/12/30 06:02:23;;;;;;;1.70;1.30;;;9.10;83.30;;;;;;5022157;28;20209;-70
2023/12/30 06:04:48;;;;;;;2.60;1.67;;;9.10;83.40;;;;;;5029838;28;20177;-70
2023/12/30 06:07:14;;;;;;;1.90;1.27;;;9.10;83.40;;;;;;5029412;28;20204;-69
2023/12/30 06:09:41;;;;;;;3.37;1.30;;;9.10;83.30;;;;;;5029678;28;20185;-69
2023/12/30 06:12:07;;;;;;;2.37;1.20;;;9.00;83.30;;;;;;5029920;28;20428;-70
2023/12/30 06:14:33;;;;;;;1.60;1.10;;;9.10;83.40;;;;;;5032050;28;20422;-70
2023/12/30 06:16:59;;;;;;;4.10;1.40;;;9.10;83.60;;;;;;5022781;28;20416;-69
2023/12/30 06:19:24;;;;;;;1.53;1.27;;;9.00;83.70;;;;;;5028342;28;20878;-71
2023/12/30 06:21:50;;;;;;;3.13;1.43;;;9.00;84.00;;;;;;5025578;28;20205;-70
2023/12/30 06:24:16;;;;;;;2.17;1.57;;;8.90;84.10;;;;;;5026744;28;20260;-69
2023/12/30 06:26:41;;;;;;;1.47;1.20;;;8.90;84.40;;;;;;5024628;28;20181;-70
2023/12/30 06:29:08;;;;;;;2.93;1.10;;;8.90;84.60;;;;;;5024963;28;20628;-69
2023/12/30 06:31:38;;;;;;;1.73;1.20;;;8.90;84.60;;;;;;5022069;28;20294;-71
2023/12/30 06:34:04;;;;;;;1.77;1.23;;;8.90;84.70;;;;;;5024763;28;20420;-70
2023/12/30 06:36:29;;;;;;;1.67;1.07;;;8.90;84.70;;;;;;5028421;28;20419;-69
2023/12/30 06:38:55;;;;;;;2.07;1.13;;;8.90;84.70;;;;;;5023943;28;20187;-70
2023/12/30 06:41:21;;;;;;;6.30;1.73;;;8.90;84.90;;;;;;5028957;28;20216;-71
2023/12/30 06:43:47;;;;;;;4.40;1.37;;;8.90;84.90;;;;;;5021760;28;20553;-71
2023/12/30 06:46:13;;;;;;;2.03;1.33;;;8.90;84.90;;;;;;5033314;28;20192;-69
2023/12/30 06:48:38;;;;;;;3.33;1.37;;;8.90;84.90;;;;;;5029785;28;20420;-70
2023/12/30 06:51:09;;;;;;;2.73;1.40;;;8.90;84.90;;;;;;5030866;28;20459;-70
2023/12/30 06:53:34;;;;;;;1.60;1.40;;;8.90;84.90;;;;;;5034378;28;20181;-71
2023/12/30 06:56:01;;;;;;;1.97;1.30;;;8.90;85.00;;;;;;5035474;28;20486;-70
2023/12/30 06:58:28;;;;;;;1.40;1.00;;;9.00;84.70;;;;;;5034134;28;20896;-71
2023/12/30 07:00:54;;;;;;;4.40;1.67;;;9.00;84.60;;;;;;5028758;28;20472;-70
2023/12/30 07:03:19;;;;;;;4.00;1.77;;;9.00;84.60;;;;;;5029972;28;20448;-71
2023/12/30 07:05:45;;;;;;;2.50;1.30;;;9.00;84.60;;;;;;5029741;28;20177;-70
2023/12/30 07:08:11;;;;;;;2.90;1.50;;;9.00;84.60;;;;;;5031247;28;20336;-70
2023/12/30 07:10:36;;;;;;;2.03;1.70;;;9.00;84.40;;;;;;5024209;28;20216;-70
2023/12/30 07:13:02;;;;;;;1.90;1.40;;;9.00;84.40;;;;;;5030829;28;20202;-70
2023/12/30 07:15:27;;;;;;;7.50;2.27;;;9.00;84.40;;;;;;5033379;28;20247;-70
2023/12/30 07:17:54;;;;;;;9.13;2.00;;;9.00;84.40;;;;;;5027964;28;20189;-69
2023/12/30 07:20:21;;;;;;;6.20;1.77;;;8.90;84.40;;;;;;5028846;28;20220;-68
2023/12/30 07:22:46;;;;;;;4.33;1.80;;;8.90;84.60;;;;;;5033446;28;20431;-71
2023/12/30 07:25:12;;;;;;;6.90;2.40;;;8.90;84.60;;;;;;5033413;28;20420;-69
2023/12/30 07:27:38;;;;;;;2.60;1.83;;;8.90;84.60;;;;;;5032403;28;20185;-71
2023/12/30 07:30:04;;;;;;;3.73;1.93;;;8.80;84.70;;;;;;5028999;28;20460;-68
2023/12/30 07:32:30;;;;;;;3.13;1.90;;;8.80;84.90;;;;;;5031318;28;20182;-70
2023/12/30 07:34:56;;;;;;;4.60;1.77;;;8.80;85.20;;;;;;5031002;28;20419;-70
2023/12/30 07:37:22;;;;;;;6.67;1.93;;;8.80;85.20;;;;;;5031682;28;20599;-70
2023/12/30 07:39:49;;;;;;;3.90;1.83;;;8.80;85.20;;;;;;5025751;28;20228;-68
2023/12/30 07:42:16;;;;;;;7.93;1.70;;;8.80;85.20;;;;;;5031178;28;20495;-70
2023/12/30 07:44:41;;;;;;;6.87;2.60;;;8.80;85.20;;;;;;5023503;28;20420;-69
2023/12/30 07:47:07;;;;;;;4.37;2.20;;;8.90;85.00;;;;;;5030034;28;21019;-68
2023/12/30 07:49:33;;;;;;;4.00;1.90;;;9.00;84.90;;;;;;5026914;28;20546;-69
2023/12/30 07:52:00;;;;;;;3.50;1.80;;;9.00;84.70;;;;;;5028674;28;20193;-70
2023/12/30 07:54:27;;;;;;;3.77;2.00;;;9.10;84.60;;;;;;5027423;28;20408;-68
2023/12/30 07:56:52;;;;;;;4.17;2.20;;;9.10;84.30;;;;;;5034179;28;20427;-69
2023/12/30 07:59:18;;;;;;;2.23;1.93;;;9.10;84.30;;;;;;5034038;28;20420;-69
2023/12/30 08:01:44;;;;;;;3.30;2.00;;;9.20;84.30;;;;;;5028738;28;20213;-70
2023/12/30 08:04:10;;;;;;;3.40;2.13;;;9.20;84.00;;;;;;5031195;28;20959;-67
2023/12/30 08:06:35;;;;;;;5.53;2.13;;;9.20;84.00;;;;;;5031807;28;20182;-71
2023/12/30 08:09:01;;;;;;;4.23;2.10;;;9.30;84.00;;;;;;5030460;28;20182;-70
2023/12/30 08:11:27;;;;;;;10.23;2.50;;;9.30;83.70;;;;;;5027136;28;20351;-70
2023/12/30 08:13:52;;;;;;;6.00;2.37;;;9.30;83.80;;;;;;5033120;28;20211;-69
2023/12/30 08:16:18;;;;;;;6.10;2.07;;;9.30;83.60;;;;;;5028528;28;20223;-68
2023/12/30 08:18:44;;;;;;;3.33;1.93;;;9.30;83.70;;;;;;5031192;28;20658;-71
2023/12/30 08:21:10;;;;;;;4.67;2.10;;;9.30;83.60;;;;;;5019663;28;20579;-70
2023/12/30 08:23:35;;;;;;;3.93;2.13;;;9.30;83.60;;;;;;5033134;28;20434;-69
2023/12/30 08:26:01;;;;;;;3.40;1.73;;;9.40;83.70;;;;;;5026591;28;20181;-70
2023/12/30 08:28:27;;;;;;;4.60;2.27;;;9.50;83.60;;;;;;5031900;28;20349;-68
2023/12/30 08:30:54;;;;;;;3.77;1.83;;;9.60;83.10;;;;;;5020567;28;20206;-69
2023/12/30 08:33:20;;;;;;;9.63;1.50;;;9.60;83.00;;;;;;5025586;28;20770;-71
2023/12/30 08:35:48;;;;;;;3.80;2.20;;;9.60;83.00;;;;;;5030030;28;20420;-71
2023/12/30 08:38:15;;;;;;;2.80;1.83;;;9.70;83.00;;;;;;5031042;28;20424;-71
2023/12/30 08:40:41;;;;;;;2.30;2.00;;;9.70;83.10;;;;;;5026512;28;20479;-71
2023/12/30 08:43:06;;;;;;;3.83;2.23;;;9.70;83.30;;;;;;5030941;28;20420;-71
2023/12/30 08:45:32;;;;;;;3.90;2.00;;;9.70;83.00;;;;;;5024686;28;20177;-72
2023/12/30 08:47:58;;;;;;;5.23;1.80;;;9.80;83.00;;;;;;5027888;28;20189;-70
2023/12/30 08:50:23;;;;;;;3.40;2.20;;;9.80;82.20;;;;;;5020205;28;20211;-71
2023/12/30 08:52:49;;;;;;;3.80;2.13;;;9.80;82.40;;;;;;5028835;28;20200;-71
2023/12/30 08:55:14;;;;;;;3.70;2.00;;;9.80;82.20;;;;;;5021347;28;20204;-71
2023/12/30 08:57:41;;;;;;;3.70;2.10;;;9.80;82.10;;;;;;5032906;28;20189;-72
2023/12/30 09:00:10;;;;;;;2.80;1.83;;;9.90;81.90;;;;;;5023774;28;20212;-72
2023/12/30 09:02:36;;;;;;;3.67;2.10;;;9.90;81.70;;;;;;5031206;28;20808;-72
2023/12/30 09:05:03;;;;;;;3.03;1.87;;;10.00;81.70;;;;;;5036771;28;20795;-72
2023/12/30 09:07:31;;;;;;;4.77;2.30;;;10.00;81.80;;;;;;5038451;28;20912;-71
2023/12/30 09:10:00;;;;;;;6.83;2.10;;;10.10;81.20;;;;;;5023311;28;20455;-74
2023/12/30 09:12:26;;;;;;;2.47;1.87;;;10.10;81.20;;;;;;5025308;28;20515;-74
2023/12/30 09:14:51;;;;;;;4.53;2.40;;;10.20;81.20;;;;;;5031258;28;20558;-73
2023/12/30 09:17:17;;;;;;;4.50;2.23;;;10.30;80.90;;;;;;5031395;28;20720;-72
2023/12/30 09:19:42;;;;;;;3.57;2.10;;;10.30;80.80;;;;;;5022042;28;20173;-73
2023/12/30 09:22:10;;;;;;;4.73;2.10;;;10.30;81.20;;;;;;5027725;28;20213;-72
2023/12/30 09:24:37;;;;;;;4.00;2.20;;;10.40;80.50;;;;;;5029420;28;20182;-71
2023/12/30 09:27:02;;;;;;;4.00;1.90;;;10.50;79.50;;;;;;5030948;28;20454;-70
2023/12/30 09:29:28;;;;;;;2.57;1.60;;;10.50;78.70;;;;;;5023913;28;20514;-71
2023/12/30 09:31:54;;;;;;;2.97;1.50;;;10.50;78.00;;;;;;5029054;28;21019;-70
2023/12/30 09:34:19;;;;;;;3.13;1.80;;;10.50;77.80;;;;;;5030133;28;20192;-72
2023/12/30 09:36:45;;;;;;;3.30;1.47;;;10.40;76.80;;;;;;5030478;28;20221;-71
2023/12/30 09:39:11;;;;;;;2.80;1.23;;;10.40;77.10;;;;;;5029840;28;20193;-72
2023/12/30 09:41:40;;;;;;;3.10;1.43;;;10.40;76.80;;;;;;5022908;28;20678;-72
2023/12/30 09:44:07;;;;;;;3.40;1.53;;;10.50;76.40;;;;;;5031568;28;20440;-71
2023/12/30 09:46:35;;;;;;;2.50;1.60;;;10.50;76.10;;;;;;5029450;28;20436;-71
2023/12/30 09:49:02;;;;;;;3.70;1.40;;;10.40;75.20;;;;;;5026593;28;20440;-71
2023/12/30 09:51:31;;;;;;;2.30;1.30;;;10.40;74.60;;;;;;5023840;28;20448;-69
2023/12/30 09:53:56;;;;;;;1.63;1.10;;;10.40;74.60;;;;;;5029561;28;20424;-71
2023/12/30 09:56:24;;;;;;;1.97;1.23;;;10.40;74.30;;;;;;5031518;28;20404;-69
2023/12/30 09:58:50;;;;;;;2.63;1.43;;;10.40;73.70;;;;;;5027295;28;20441;-71
2023/12/30 10:01:16;;;;;;;1.87;1.17;;;10.50;73.50;;;;;;5027418;28;20479;-68
2023/12/30 10:03:42;;;;;;;2.50;1.20;;;10.50;72.90;;;;;;5033078;28;20459;-70
2023/12/30 10:06:11;;;;;;;3.67;1.43;;;10.50;73.00;;;;;;5030334;28;20420;-69
2023/12/30 10:08:37;;;;;;;2.43;1.30;;;10.40;72.70;;;;;;5032303;28;20416;-70
2023/12/30 10:11:08;;;;;;;4.13;1.03;;;10.40;72.70;;;;;;5030305;28;21110;-71
2023/12/30 10:13:38;;;;;;;5.03;1.10;;;10.40;72.10;;;;;;5031931;28;20496;-71
2023/12/30 10:16:05;;;;;;;1.70;1.23;;;10.40;72.30;;;;;;5029130;28;20416;-70
2023/12/30 10:18:40;;;;;;;2.40;1.40;;;10.40;72.10;;;;;;5030363;28;20418;-71
2023/12/30 10:21:07;;;;;;;3.03;1.13;;;10.40;72.10;;;;;;5025737;28;20479;-73
2023/12/30 10:23:35;;;;;;;3.27;1.10;;;10.50;72.10;;;;;;5027130;28;20420;-71
2023/12/30 10:26:02;;;;;;;2.77;1.37;;;10.50;70.80;;;;;;5028014;28;20405;-71
2023/12/30 10:28:29;;;;;;;2.90;1.20;;;10.50;70.70;;;;;;5031231;28;20416;-71
2023/12/30 10:31:06;;;;;;;3.13;1.37;;;10.50;70.80;;;;;;5028800;28;20826;-69
2023/12/30 10:33:36;;;;;;;2.27;1.30;;;10.60;70.20;;;;;;5024179;28;20873;-69
2023/12/30 10:36:05;;;;;;;2.97;1.40;;;10.60;69.20;;;;;;5029503;28;20424;-69
2023/12/30 10:38:32;;;;;;;1.20;1.10;;;10.60;69.20;;;;;;5026046;28;20840;-70
2023/12/30 10:40:58;;;;;;;3.73;1.10;;;10.60;69.50;;;;;;5021424;28;20571;-69
2023/12/30 10:43:24;;;;;;;2.87;1.10;;;10.80;68.90;;;;;;5025691;28;20514;-69
2023/12/30 10:45:58;;;;;;;1.43;1.03;;;10.80;68.50;;;;;;5027401;28;20189;-70
2023/12/30 10:48:31;;;;;;;3.03;1.13;;;10.80;68.30;;;;;;5023426;28;20426;-70
2023/12/30 10:51:01;;;;;;;1.33;0.70;;;10.80;67.60;;;;;;5019792;28;20587;-69
2023/12/30 10:54:01;;;;;;;3.40;2.13;;;10.70;67.60;;;;;;5021369;28;20448;-71
2023/12/30 10:56:29;;;;;;;2.47;1.87;;;10.80;67.70;;;;;;5025522;28;20440;-72
2023/12/30 10:59:00;;;;;;;2.80;1.37;;;11.00;67.60;;;;;;5023422;28;20483;-71
2023/12/30 11:01:25;;;;;;;3.90;1.13;;;11.20;67.90;;;;;;5026700;28;20911;-71
2023/12/30 11:03:52;;;;;;;1.90;1.40;;;11.40;66.30;;;;;;5027935;28;20416;-69
2023/12/30 11:06:32;;;;;;;1.83;0.97;;;11.40;66.00;;;;;;5029221;28;20201;-69
2023/12/30 11:08:59;;;;;;;8.20;1.30;;;11.40;66.40;;;;;;5027633;28;20826;-70
2023/12/30 11:11:25;;;;;;;2.70;1.03;;;11.30;66.70;;;;;;5025204;28;20536;-69
2023/12/30 11:13:56;;;;;;;2.07;0.83;;;11.20;65.80;;;;;;5026385;28;20471;-71
2023/12/30 11:16:22;;;;;;;3.77;1.10;;;11.20;66.70;;;;;;5026695;28;20411;-70
2023/12/30 11:18:59;;;;;;;1.43;1.00;;;11.20;66.90;;;;;;5028243;28;20792;-69
2023/12/30 11:21:46;;;;;;;2.47;0.90;;;11.20;66.40;;;;;;5015674;28;20645;-71
2023/12/30 11:24:15;;;;;;;1.40;0.80;;;11.20;66.70;;;;;;5022627;28;20475;-71
2023/12/30 11:26:41;;;;;;;1.40;1.00;;;11.30;66.60;;;;;;5023180;28;20424;-71
2023/12/30 11:29:12;;;;;;;1.37;0.80;;;11.30;66.30;;;;;;5029117;28;20427;-69
2023/12/30 11:31:41;;;;;;;1.90;0.80;;;11.30;66.60;;;;;;5027698;28;20491;-68
2023/12/30 11:34:06;;;;;;;1.80;1.20;;;11.30;66.90;;;;;;5026768;28;20420;-69
2023/12/30 11:36:32;;;;;;;3.43;1.23;;;11.30;67.00;;;;;;5027365;28;20416;-69
2023/12/30 11:38:59;;;;;;;2.83;1.00;;;11.40;67.20;;;;;;5031543;28;20228;-71
2023/12/30 11:41:26;;;;;;;1.80;1.10;;;11.50;66.40;;;;;;5029466;28;20244;-70
2023/12/30 11:43:55;;;;;;;1.20;0.70;;;11.60;66.30;;;;;;5027513;28;20435;-70
2023/12/30 11:46:21;;;;;;;1.67;0.77;;;11.60;66.00;;;;;;5031782;28;20434;-71
2023/12/30 11:48:47;;;;;;;1.97;1.00;;;11.60;66.00;;;;;;5021811;28;20420;-69
2023/12/30 11:51:23;;;;;;;1.10;0.83;;;11.60;66.30;;;;;;5027362;28;20211;-70
2023/12/30 11:53:48;;;;;;;1.70;0.70;;;11.60;66.10;;;;;;5028505;28;20418;-70
2023/12/30 11:56:15;;;;;;;0.97;0.70;;;11.70;66.40;;;;;;5033476;28;20408;-70
2023/12/30 11:58:45;;;;;;;2.00;1.00;;;11.60;65.60;;;;;;5028441;28;20204;-71
2023/12/30 12:01:11;;;;;;;3.07;0.90;;;11.50;66.10;;;;;;5027380;28;20773;-70
2023/12/30 12:03:37;;;;;;;0.90;0.87;;;11.50;66.40;;;;;;5030750;28;20420;-71
2023/12/30 12:06:03;;;;;;;2.30;1.10;;;11.60;66.70;;;;;;5033037;28;20416;-72
2023/12/30 12:08:29;;;;;;;1.23;0.90;;;11.60;66.30;;;;;;5030091;28;20188;-71
2023/12/30 12:10:56;;;;;;;2.17;1.03;;;11.60;66.40;;;;;;5027626;28;20491;-70
2023/12/30 12:13:25;;;;;;;1.47;0.90;;;11.60;66.40;;;;;;5026424;28;20581;-71
2023/12/30 12:15:52;;;;;;;3.20;1.20;;;11.70;66.40;;;;;;5030474;28;20865;-71
2023/12/30 12:18:19;;;;;;;1.13;0.80;;;11.70;66.30;;;;;;5026887;28;20429;-71
2023/12/30 12:20:45;;;;;;;3.27;1.10;;;11.70;66.30;;;;;;5028453;28;20556;-71
2023/12/30 12:23:12;;;;;;;2.03;0.90;;;11.70;66.10;;;;;;5031589;28;20421;-72
2023/12/30 12:25:38;;;;;;;1.80;1.00;;;11.70;66.40;;;;;;5035264;28;20414;-71
2023/12/30 12:28:15;;;;;;;1.33;1.00;;;11.80;66.30;;;;;;5034512;28;20474;-70
2023/12/30 12:30:41;;;;;;;2.97;1.27;;;12.00;65.70;;;;;;5031972;28;21068;-70
2023/12/30 12:33:08;;;;;;;2.63;1.10;;;12.20;65.80;;;;;;5031687;28;20420;-72
2023/12/30 12:35:34;;;;;;;2.70;1.03;;;12.30;65.30;;;;;;5029804;28;20964;-72
2023/12/30 12:38:00;;;;;;;1.47;0.93;;;12.30;65.10;;;;;;5031514;28;20421;-71
2023/12/30 12:40:26;;;;;;;1.53;1.00;;;12.30;65.60;;;;;;5024448;28;20447;-71
2023/12/30 12:42:53;;;;;;;7.33;1.60;;;12.40;65.30;;;;;;5027666;28;20439;-71
2023/12/30 12:45:18;;;;;;;2.90;1.70;;;12.30;65.40;;;;;;5029824;28;20778;-71
2023/12/30 12:47:45;;;;;;;3.07;1.27;;;12.30;65.30;;;;;;5030951;28;20599;-71
2023/12/30 12:50:11;;;;;;;1.87;1.20;;;12.40;65.60;;;;;;5022382;28;21003;-70